KIJX/IJX METAR and TAF weather

Enter ICAO airport designator
Station Type Date Time Source
KIJX METAR 2019/08/24 18:15 UTC NOAA

KIJX 241815Z AUTO 11016KT 10SM CLR 23/13 A3017 RMK AO2 T02310131


Station Type Date Time Source
KIJX Decoded METAR 2019/08/24 18:15 UTC NOAA

Station name not available
Aug 24, 2019 - 02:15 PM EDT / 2019.08.24 1815 UTC
Wind: from the ESE (110 degrees) at 18 MPH (16 KT):0
Visibility: 10 mile(s):0
Sky conditions: clear
Temperature: 73.6 F (23.1 C)
Dew Point: 55.6 F (13.1 C)
Relative Humidity: 53%
Pressure (altimeter): 30.17 in. Hg (1021 hPa)
ob: KIJX 241815Z AUTO 11016KT 10SM CLR 23/13 A3017 RMK AO2 T02310131
cycle: 18

Station Type Date Time Source
KIJX TAF UTC NOAA

Error!

Example: see airport list